Timeline UpdatesTrip UpdatesNews PostsPvt PostsTravel TipsAdmin PostsConv PostsFollowed PostsChat RequestsBlog PostsPNR Posts

Disclaimer
Search
 
 
Fri Apr 18, 2014 00:41:53 ISTHomeTrainsΣChainsAtlasPNRForumGalleryNewsFAQTripsMembersLoginFeedback
No Recent News for this Train
Other Trains in the News **new
Latest...
.
Thu Nov 14, 2013 (06:37PM)
⇐ Return Journey: Train# 19019

19020/Dehradun - Mumbai Bandra Terminus Express

Apr 15 (1:35PM)
Change Departure Station:
Change Arrival Station:
Post a Train Travel TipPost a Train Travel Tip **new
Post a Comment/Question/Picture/VideoPost a Comment/Question/Picture/Video
Pantry/Catering
✕ NO Pantry Car
✓ Catering Avbl
Loco/Rake Reversals
SRE/Saharanpur Junction (6); LRJ/Laksar Junction (4);
RSA - Rake Sharing
Rake/Coach Composition
LOCO-SLR-HCPV-GEN-GEN-AB1-S1-S2-S3-S4-S5-S6-S7-S8-S9-SLR
Loco
GZB WAP-7 NZM-BDTS. ddn to nzm tkd wdp 3a. By Er...
Read more...
Ankit Shotra Bhagat Entry# 595554
News    PNR    Forum    Time-Table    Availability    Fare Chart    Map    Arr/Dep History    Trips    Gallery    ΣChains    X/O    Timeline    
Travel Time: 20h 3m    36 halts    Distance: 760 km    Avg Speed: 37 km/hr
Type: Mail/Express
Zone: WR/Western
Departs @ 10:35 (Avg on time)
Platform# 2
SMTWTFS
Dehradun/DDN 
Arrives @ 06:38 +1 night (Avg 24m late)
Platform# ???
SMTWTFS
Keshorai Patan/KPTN 

36 halts. 112 intermediate Stations between Dehradun and Keshorai Patan

Show ALL intermediate Stations  Show Old Time-Table

#CodeStation NameX/OArrivesAvgDepartsAvgHaltPFDay#KmSpeedElevZoneAddress
1DDN»Dehradun (4)»  -10:35+0210.041648mNRDehradun, Uttarakhand
2DWODoiwala  11:04+411:06+42m--119.839484mNRDehradun, Uttarakhand
3RWLRaiwala Junction (2)X  11:38+211:40+152m2140.520361mNRRishikesh, Uttarakhand
4MOTCMotichur (1)X  12:00+712:02+82m1147.121312mNRHaridwar, Uttarakhand
5HWHaridwar Junction (9)X  12:15+812:45+1030m3151.730294mNRHaridwar, Uttarakhand
6JWPJwalapurX  12:53+1212:55+122m--155.621292mNRHaridwar, Uttarakhand
7LRJLaksar Junction (4)X14:00+314:25+525m--178.659238mNRLaksar, Uttarakhand
8RKRoorkee (3)X  14:43+814:45+102m3196.442264mNRRoorkee - 247667, Uttarakhand
9SRESaharanpur Junction (6)X15:35+416:05+130m31131.146276mNRSaharanpur, Uttar Pradesh
10DBDDeoband (2)X  16:50+516:52+72m21165.351258mNRSaharanpur, Uttar Pradesh
11MOZMuzaffarnagar (3)X  17:20+617:22+192m21189.367247mNRMuzaffarNagar, Uttar Pradesh
12KATKhatauli (2)  17:42+2217:44+242m11211.573239mNRKhatauli, Uttar Pradesh
13MUTMeerut Cantt. (2)  18:08+3118:10+312m11240.610230mNRMeerut, Uttar Pradesh
14MTCMeerut City Junction (6)X18:35+1719:20+1045m41244.983229mNRMeerut, Uttar Pradesh
15MDNRModinagar (2)X  19:34+1819:36+182m21264.467221mNRGhaziabad, Uttar Pradesh
16MUDMuradnagar (2)  19:45+1919:47+192m21274.547220mNRGhaziabad, Uttar Pradesh
17GZNNew Ghaziabad (2)X  20:02-20:04-2m21286.214213mNRGhaziabad, Uttar Pradesh
18GZBGhaziabad Junction (6)X  20:30+920:32+112m41292.145217mNRGhaziabad, Uttar Pradesh
19SBBSahibabad Junction (5)X  20:41+1620:43+162m--1298.830209mNRGhaziabad, Uttar Pradesh
20NZMDelhi Hazrat Nizamuddin (7)XO21:15+2021:55+1540m11314.925209mNRNizamuddin East/Sarai KaleKhan Bus Terminal, Delhi NCT
21TKDTuglakabad (4)XO  22:18+1622:20+172m--1324.628213mNRNear Tughlakabad Metro Station, Delhi NCT
22FDBFaridabad (4)  22:44+1222:46+132m31335.740206mNRFaridabad, Haryana
23BVHBallabgarh (5)O  22:58+1223:00+122m--1343.735203mNRFaridabad, Haryana
24PWLPalwal (8)X  23:36+523:38+72m--1364.985200mNRPalwal, Haryana
25KSVKosi Kalan (3)XO  00:08+2000:10+212m22407.429189mNCRKosi Kalan, Uttar Pradesh
26MTJMathura Junction (10)X  01:35+101:45+210m32448.880179mNCRMathura, Uttar Pradesh
27BTEBharatpur Junction (5)  02:10+702:15+75m--2482.484174mWCRBharatpur, Rajasthan
28BXNBayana Junction (3)XO  02:45+1002:47+122m--2524.374198mWCRBayana, Rajasthan
29FSPFateh SinghpuraO  03:03+1403:05+162m--2544.079223mWCRState Highway 1, Rajasthan
30HANHindaun City (2)  03:15+1803:17+212m--2557.268230mWCRKarauli, Rajasthan
31SMBJShri Mahabirji (3)O  03:26+2103:28+212m--2567.449240mWCRKarauli, Rajasthan
32GGCGangapur City (3)  04:10+804:20+1110m--2601.564270mWCRGangapur, Rajasthan
33NNWNarayanpur Tatwara (2)X  04:36+1304:38+152m--2618.484256mWCRSawai Madhopur, Rajasthan
34MLZMalarnaX  04:50+1404:52+132m--2635.265236mWCRSawai Madhopur, Rajasthan
35SWMSawai Madhopur Junction (4)XO  05:20+1105:25+125m--2665.495266mWCRSawai Madhopur, Rajasthan
36IDGIndargarh Sumerganj Mandi (2)X  05:48+1605:50+182m--2701.782247mWCRIndargarh, Rajasthan
37LKELakheri (3)  05:58+2006:00+212m--2712.774228mWCRBundi, Rajasthan
38KPTN•Keshorai Patan•X  06:38+2406:40+252m--2759.760243mWCRSH 33, Rajasthan
39GQLGurla  06:48+2706:50+292m--2767.78251mWCRSH 33, Rajasthan
40KOTAKota Junction (5)X07:30+807:50+1220m22773.151256mWCRKota, Rajasthan
41DKNTDakaniya Talav (2)  08:01+1708:03+192m22782.485278mWCRKota, Rajasthan
42DARADaraX  08:30+2108:32+232m--2820.655354mWCRDara, Rajasthan
43MKXMorak (2)X  08:48+2408:50+242m--2835.342337mWCRMorak, Rajasthan
44RMARamganj Mandi Junction (3)X  09:03+2109:05+242m--2844.457358mWCRRamganj Mandi, Rajasthan
45JHWJhalawar Road (3)  09:18+2309:20+232m--2856.755361mWCRJhalawar City, Rajasthan
46BWMBhawani Mandi (3)X  09:38+1909:40+252m--2873.276384mWCRBhawani Mandi, Madhya Pradesh
47GOHGaroth (2)  09:58+2510:00+262m12895.926441mWCRMadhya Pradesh 458880, Madhya Pradesh
48SGZShamgarh (3)X  10:25+1410:30+165m--2906.767463mWCRMandsaur, Madhya Pradesh
49SVASuwasra (2)  10:42+1810:44+192m--2920.166450mWCRSuwasra, Madhya Pradesh
50CMUChau Mahla (3)X  10:58+1911:00+202m12935.535426mWCRJhalawar, Rajasthan
51THURThuriaX  11:24+1111:26+142m--2949.721430mWCRMDR 45, Madhya Pradesh
52VMAVikramgarh Alot (2)  11:48+511:50+102m12957.361443mWCRKota Division, Madhya Pradesh
53LNRLuni Richha  12:03+812:05+92m--2970.628471mWCRAlote, Madhya Pradesh
54MEPMahidpur Road  12:28+012:30+42m--2981.229493mWCRGogapur, Madhya Pradesh
55NADNagda Junction (4)  13:05+213:15+710m--2998.375468mWRNagda, Madhya Pradesh
56KUHKhachrod (2)  13:26+913:28+102m--21012.157497mWRUjjain, Madhya Pradesh
57RNHRunkheraX  13:39+813:41+72m--21022.563478mWRUjjain, Madhya Pradesh
58BODBangrodX  13:48+813:50+82m--21029.924484mWRRatlam, Madhya Pradesh
59RTMRatlam Junction (7)X  14:15-114:35+320m421039.777495mWRRatlam, Madhya Pradesh
60RTIRaoti (2)  14:56+914:58+82m--21066.671409mWRState Highway 39A, Madhya Pradesh
61BOGBhairongarh (2)  15:08+915:10+82m--21078.551374mWRBhairongarh Railway Station, Madhya Pradesh
62BMIBamnia (2)  15:17+1015:19+92m--21084.542392mWRBamnia, Madhya Pradesh
63AGRAmargarh (2)  15:25+915:27+82m--21088.657410mWRSH 39A, Madhya Pradesh
64PCNPanch Pipila (2)  15:37+915:39+82m--21098.184369mWRSH 39A, Madhya Pradesh
65THDRThandla Road (2)  15:49+1015:51+102m--21112.060317mWRJhabua, Madhya Pradesh
66MGNMeghnagar (3)  15:59+1116:01+132m--21120.073317mWRJhabua, Madhya Pradesh
67ANASAnas (2)  16:13+1616:15+152m--21134.679288mWRMadhya Pradesh 389154 ?, Madhya Pradesh
68BIOBordi (2)  16:21+1616:23+152m--21142.553289mWRNational Highway 59, Gujarat
69DHDDahod (3)  16:35+1916:40+205m--21153.176313mWRDahod, Gujarat
70LMKLimkheda  17:06+2317:08+222m--21186.168205mWRLimkheda, Gujarat
71PPDPiplod Junction  17:15+2317:17+232m--21194.079209mWRPiplod, Gujarat
72SATSant Road (2)X  17:26+2217:28+212m221205.920169mWROrwara, Gujarat
73GDAGodhra Junction (3)X  18:30+018:35+35m1021226.265122mWRGodhra, Gujarat
74KRSAKharsaliya (2)  18:45+718:47+62m--21237.185107mWRPanchmahal, Gujarat
75DRLDerolX  18:56+818:58+72m121249.86881mWRKalol, Gujarat
76CPNChampaner Road JunctionX  19:09+619:11+62m--21262.37578mWRPanchmahal, Gujarat
77SMLASamlaya Junction (3)X  19:20+719:22+72m--21273.54867mWRVadodara, Gujarat
78BRCVadodara Junction (7)  19:55+1420:05+1310m321300.18936mWRVadodara, Gujarat
79MYGMiyagam Karjan (2)  20:25+2120:27+202m--21329.97229mWRKarjan, Gujarat
80BHBharuch Junction (5)  21:01+2321:03+232m421370.66219mWRBharuch, Gujarat
81AKVAnkleshwar Junction (4)X  21:12+2521:14+242m221380.07419mWRAnkleshwar, Gujarat
82KSBKosamba Junction (3)X21:29+1721:31+222m--21398.53230mWRKosamba, Gujarat
83STSurat (4)X  22:30+322:38+38m221429.97119mWRSurat 395001, Gujarat
84NVSNavsari (3)  23:03+823:05+92m--21459.57914mWRNavsari, Gujarat
85BIMBilimora Junction (4)X  23:21+1523:23+152m--21480.73611mWRBilimora, Gujarat
86BLValsad (3)  23:53+1123:55+182m321498.63815mWRValsad, Gujarat
87VAPIVapi (3)X  00:36+400:38+82m--31524.95727mWRVapi, Gujarat
88PLGPalghar (3)  02:04+1102:06+132m--31606.43719mWRPalghar, Maharashtra
89VRVirar (8)  02:56+502:58+62m--31637.5486mWRThane, Maharashtra
90BVIMumbai Borivali (8)  03:30+303:32+62m531663.32319mWRMumbai - 400092, Maharashtra
91BDTSMumbai Bandra Terminus (5)  04:20-3-131682.1-4mWRMumbai 400050, Maharashtra
Scroll to Top
Scroll to Bottom